sensor_id;sensor_type;location;lat;lon;timestamp;P1;durP1;ratioP1;P2;durP2;ratioP2
44376;SDS011;30093;0.000;0.000;2022-08-18T00:01:33;22.75;;;17.17;;
44376;SDS011;30093;0.000;0.000;2022-08-18T00:05:22;17.70;;;15.77;;
44376;SDS011;30093;0.000;0.000;2022-08-18T00:09:11;22.00;;;15.98;;
44376;SDS011;30093;0.000;0.000;2022-08-18T00:13:00;21.13;;;16.77;;
44376;SDS011;30093;0.000;0.000;2022-08-18T00:16:50;18.35;;;16.40;;
44376;SDS011;30093;0.000;0.000;2022-08-18T00:20:40;22.65;;;16.38;;
44376;SDS011;30093;0.000;0.000;2022-08-18T00:24:29;28.63;;;17.65;;
44376;SDS011;30093;0.000;0.000;2022-08-18T00:28:17;20.50;;;15.57;;
44376;SDS011;30093;0.000;0.000;2022-08-18T00:32:15;22.27;;;16.73;;
44376;SDS011;30093;0.000;0.000;2022-08-18T00:36:06;18.77;;;15.10;;
44376;SDS011;30093;0.000;0.000;2022-08-18T00:39:54;19.88;;;16.08;;
44376;SDS011;30093;0.000;0.000;2022-08-18T00:43:44;17.13;;;15.27;;
44376;SDS011;30093;0.000;0.000;2022-08-18T00:47:35;18.05;;;15.85;;
44376;SDS011;30093;0.000;0.000;2022-08-18T00:51:42;22.13;;;16.48;;
44376;SDS011;30093;0.000;0.000;2022-08-18T00:55:34;22.42;;;18.08;;
44376;SDS011;30093;0.000;0.000;2022-08-18T01:03:29;21.38;;;19.23;;
44376;SDS011;30093;0.000;0.000;2022-08-18T01:07:21;25.98;;;19.40;;
44376;SDS011;30093;0.000;0.000;2022-08-18T01:11:16;22.05;;;19.48;;
44376;SDS011;30093;0.000;0.000;2022-08-18T01:15:05;22.70;;;19.65;;
44376;SDS011;30093;0.000;0.000;2022-08-18T01:18:54;26.15;;;20.30;;
44376;SDS011;30093;0.000;0.000;2022-08-18T01:23:03;28.08;;;22.55;;
44376;SDS011;30093;0.000;0.000;2022-08-18T01:26:59;24.27;;;21.88;;
44376;SDS011;30093;0.000;0.000;2022-08-18T01:30:52;27.02;;;21.98;;
44376;SDS011;30093;0.000;0.000;2022-08-18T01:34:46;26.15;;;23.55;;
44376;SDS011;30093;0.000;0.000;2022-08-18T01:38:34;26.42;;;20.77;;
44376;SDS011;30093;0.000;0.000;2022-08-18T01:42:23;28.45;;;23.80;;
44376;SDS011;30093;0.000;0.000;2022-08-18T01:46:11;26.30;;;23.48;;
44376;SDS011;30093;0.000;0.000;2022-08-18T01:50:00;32.88;;;25.50;;
44376;SDS011;30093;0.000;0.000;2022-08-18T01:53:49;26.40;;;23.85;;
44376;SDS011;30093;0.000;0.000;2022-08-18T01:57:38;26.70;;;24.17;;
44376;SDS011;30093;0.000;0.000;2022-08-18T02:01:29;26.63;;;23.88;;
44376;SDS011;30093;0.000;0.000;2022-08-18T02:05:19;23.45;;;20.50;;
44376;SDS011;30093;0.000;0.000;2022-08-18T02:09:15;27.23;;;23.38;;
44376;SDS011;30093;0.000;0.000;2022-08-18T02:13:03;22.35;;;19.95;;
44376;SDS011;30093;0.000;0.000;2022-08-18T02:16:52;23.55;;;20.27;;
44376;SDS011;30093;0.000;0.000;2022-08-18T02:20:43;28.05;;;22.00;;
44376;SDS011;30093;0.000;0.000;2022-08-18T02:24:32;25.52;;;22.92;;
44376;SDS011;30093;0.000;0.000;2022-08-18T02:28:20;23.85;;;21.35;;
44376;SDS011;30093;0.000;0.000;2022-08-18T02:32:08;23.27;;;20.95;;
44376;SDS011;30093;0.000;0.000;2022-08-18T02:35:56;24.92;;;22.27;;
44376;SDS011;30093;0.000;0.000;2022-08-18T02:39:45;23.23;;;20.53;;
44376;SDS011;30093;0.000;0.000;2022-08-18T02:43:35;21.63;;;19.42;;
44376;SDS011;30093;0.000;0.000;2022-08-18T02:47:24;22.75;;;19.63;;
44376;SDS011;30093;0.000;0.000;2022-08-18T02:51:13;25.25;;;22.63;;
44376;SDS011;30093;0.000;0.000;2022-08-18T02:55:03;25.65;;;23.00;;
44376;SDS011;30093;0.000;0.000;2022-08-18T02:58:52;26.20;;;23.27;;
44376;SDS011;30093;0.000;0.000;2022-08-18T03:02:46;26.95;;;24.20;;
44376;SDS011;30093;0.000;0.000;2022-08-18T03:06:40;28.52;;;22.67;;
44376;SDS011;30093;0.000;0.000;2022-08-18T03:10:29;26.35;;;23.70;;
44376;SDS011;30093;0.000;0.000;2022-08-18T03:14:17;27.17;;;24.02;;
44376;SDS011;30093;0.000;0.000;2022-08-18T03:18:04;26.27;;;23.73;;
44376;SDS011;30093;0.000;0.000;2022-08-18T03:21:53;27.58;;;24.67;;
44376;SDS011;30093;0.000;0.000;2022-08-18T03:25:42;30.23;;;27.33;;
44376;SDS011;30093;0.000;0.000;2022-08-18T03:29:34;32.58;;;27.55;;
44376;SDS011;30093;0.000;0.000;2022-08-18T03:33:22;27.38;;;24.60;;
44376;SDS011;30093;0.000;0.000;2022-08-18T03:37:11;28.17;;;25.15;;
44376;SDS011;30093;0.000;0.000;2022-08-18T03:41:04;32.10;;;27.15;;
44376;SDS011;30093;0.000;0.000;2022-08-18T03:44:55;31.95;;;26.52;;
44376;SDS011;30093;0.000;0.000;2022-08-18T03:48:43;31.20;;;26.38;;
44376;SDS011;30093;0.000;0.000;2022-08-18T03:52:33;30.40;;;24.73;;
44376;SDS011;30093;0.000;0.000;2022-08-18T03:56:35;30.75;;;26.30;;
44376;SDS011;30093;0.000;0.000;2022-08-18T04:00:25;37.47;;;25.63;;
44376;SDS011;30093;0.000;0.000;2022-08-18T04:04:16;27.65;;;23.75;;
44376;SDS011;30093;0.000;0.000;2022-08-18T04:08:07;30.48;;;22.40;;
44376;SDS011;30093;0.000;0.000;2022-08-18T04:11:57;43.20;;;25.13;;
44376;SDS011;30093;0.000;0.000;2022-08-18T04:15:49;26.20;;;23.60;;
44376;SDS011;30093;0.000;0.000;2022-08-18T04:19:37;28.63;;;25.67;;
44376;SDS011;30093;0.000;0.000;2022-08-18T04:23:25;31.63;;;26.67;;
44376;SDS011;30093;0.000;0.000;2022-08-18T04:27:13;31.13;;;25.58;;
44376;SDS011;30093;0.000;0.000;2022-08-18T04:31:09;33.33;;;24.80;;
44376;SDS011;30093;0.000;0.000;2022-08-18T04:34:59;34.00;;;24.73;;
44376;SDS011;30093;0.000;0.000;2022-08-18T04:38:48;36.60;;;24.23;;
44376;SDS011;30093;0.000;0.000;2022-08-18T04:42:36;37.35;;;28.33;;
44376;SDS011;30093;0.000;0.000;2022-08-18T04:46:25;31.55;;;26.73;;
44376;SDS011;30093;0.000;0.000;2022-08-18T04:54:03;32.45;;;21.85;;
44376;SDS011;30093;0.000;0.000;2022-08-18T04:57:51;28.67;;;21.58;;
44376;SDS011;30093;0.000;0.000;2022-08-18T05:01:43;24.67;;;19.83;;
44376;SDS011;30093;0.000;0.000;2022-08-18T05:05:33;21.42;;;18.58;;
44376;SDS011;30093;0.000;0.000;2022-08-18T05:09:22;30.93;;;23.07;;
44376;SDS011;30093;0.000;0.000;2022-08-18T05:13:10;23.88;;;19.17;;
44376;SDS011;30093;0.000;0.000;2022-08-18T05:17:03;21.77;;;18.38;;
44376;SDS011;30093;0.000;0.000;2022-08-18T05:20:52;21.92;;;19.60;;
44376;SDS011;30093;0.000;0.000;2022-08-18T05:24:42;19.80;;;17.45;;
44376;SDS011;30093;0.000;0.000;2022-08-18T05:28:31;22.60;;;16.77;;
44376;SDS011;30093;0.000;0.000;2022-08-18T05:32:22;19.80;;;17.48;;
44376;SDS011;30093;0.000;0.000;2022-08-18T05:40:12;19.08;;;16.77;;
44376;SDS011;30093;0.000;0.000;2022-08-18T05:44:02;19.55;;;16.58;;
44376;SDS011;30093;0.000;0.000;2022-08-18T05:47:55;18.90;;;16.92;;
44376;SDS011;30093;0.000;0.000;2022-08-18T05:52:20;19.30;;;15.77;;
44376;SDS011;30093;0.000;0.000;2022-08-18T05:56:06;19.80;;;16.23;;
44376;SDS011;30093;0.000;0.000;2022-08-18T06:00:18;19.85;;;17.13;;
44376;SDS011;30093;0.000;0.000;2022-08-18T06:08:07;21.77;;;14.38;;
44376;SDS011;30093;0.000;0.000;2022-08-18T06:12:04;15.18;;;13.63;;
44376;SDS011;30093;0.000;0.000;2022-08-18T06:16:03;20.05;;;14.13;;
44376;SDS011;30093;0.000;0.000;2022-08-18T06:20:14;14.23;;;12.30;;
44376;SDS011;30093;0.000;0.000;2022-08-18T06:28:52;14.10;;;12.68;;
44376;SDS011;30093;0.000;0.000;2022-08-18T06:41:08;70.72;;;53.55;;
44376;SDS011;30093;0.000;0.000;2022-08-18T06:45:04;15.73;;;14.02;;
44376;SDS011;30093;0.000;0.000;2022-08-18T06:49:01;16.05;;;12.68;;
44376;SDS011;30093;0.000;0.000;2022-08-18T06:52:53;15.40;;;13.80;;
44376;SDS011;30093;0.000;0.000;2022-08-18T07:08:30;16.08;;;12.43;;
44376;SDS011;30093;0.000;0.000;2022-08-18T07:12:23;19.38;;;11.10;;
44376;SDS011;30093;0.000;0.000;2022-08-18T07:20:23;18.40;;;12.50;;
44376;SDS011;30093;0.000;0.000;2022-08-18T07:24:13;12.73;;;11.55;;
44376;SDS011;30093;0.000;0.000;2022-08-18T07:32:22;14.38;;;11.55;;
44376;SDS011;30093;0.000;0.000;2022-08-18T07:36:21;12.60;;;10.75;;
44376;SDS011;30093;0.000;0.000;2022-08-18T07:52:21;15.35;;;11.68;;
44376;SDS011;30093;0.000;0.000;2022-08-18T07:56:20;17.63;;;11.60;;
44376;SDS011;30093;0.000;0.000;2022-08-18T08:00:21;15.88;;;14.20;;
44376;SDS011;30093;0.000;0.000;2022-08-18T08:08:34;11.52;;;10.32;;
44376;SDS011;30093;0.000;0.000;2022-08-18T08:12:38;15.38;;;11.68;;
44376;SDS011;30093;0.000;0.000;2022-08-18T08:16:56;14.27;;;11.02;;
44376;SDS011;30093;0.000;0.000;2022-08-18T08:20:54;22.58;;;16.88;;
44376;SDS011;30093;0.000;0.000;2022-08-18T08:29:07;14.23;;;11.43;;
44376;SDS011;30093;0.000;0.000;2022-08-18T08:33:31;14.82;;;10.43;;
44376;SDS011;30093;0.000;0.000;2022-08-18T08:37:14;16.75;;;10.15;;
44376;SDS011;30093;0.000;0.000;2022-08-18T08:41:18;15.05;;;11.50;;
44376;SDS011;30093;0.000;0.000;2022-08-18T08:45:22;22.17;;;10.10;;
44376;SDS011;30093;0.000;0.000;2022-08-18T08:53:31;14.23;;;10.30;;
44376;SDS011;30093;0.000;0.000;2022-08-18T08:57:34;14.13;;;10.98;;
44376;SDS011;30093;0.000;0.000;2022-08-18T09:18:47;14.73;;;9.70;;
44376;SDS011;30093;0.000;0.000;2022-08-18T09:23:26;15.05;;;10.05;;
44376;SDS011;30093;0.000;0.000;2022-08-18T09:39:28;12.80;;;8.63;;
44376;SDS011;30093;0.000;0.000;2022-08-18T09:47:57;12.93;;;8.43;;
44376;SDS011;30093;0.000;0.000;2022-08-18T09:52:00;11.57;;;9.45;;
44376;SDS011;30093;0.000;0.000;2022-08-18T09:56:07;10.27;;;7.95;;
44376;SDS011;30093;0.000;0.000;2022-08-18T10:27:53;10.93;;;8.55;;
44376;SDS011;30093;0.000;0.000;2022-08-18T10:35:54;16.30;;;8.38;;
44376;SDS011;30093;0.000;0.000;2022-08-18T10:39:55;11.95;;;8.10;;
44376;SDS011;30093;0.000;0.000;2022-08-18T10:43:47;12.93;;;8.02;;
44376;SDS011;30093;0.000;0.000;2022-08-18T10:47:38;17.38;;;8.95;;
44376;SDS011;30093;0.000;0.000;2022-08-18T10:51:33;9.77;;;8.00;;
44376;SDS011;30093;0.000;0.000;2022-08-18T10:55:35;9.23;;;8.15;;
44376;SDS011;30093;0.000;0.000;2022-08-18T10:59:46;11.55;;;8.07;;
44376;SDS011;30093;0.000;0.000;2022-08-18T11:08:00;14.23;;;8.38;;
44376;SDS011;30093;0.000;0.000;2022-08-18T11:11:51;11.77;;;8.45;;
44376;SDS011;30093;0.000;0.000;2022-08-18T11:15:48;11.68;;;7.82;;
44376;SDS011;30093;0.000;0.000;2022-08-18T11:19:42;11.93;;;7.70;;
44376;SDS011;30093;0.000;0.000;2022-08-18T11:23:33;12.13;;;8.15;;
44376;SDS011;30093;0.000;0.000;2022-08-18T11:27:25;15.25;;;9.10;;
44376;SDS011;30093;0.000;0.000;2022-08-18T11:31:16;11.25;;;7.40;;
44376;SDS011;30093;0.000;0.000;2022-08-18T11:38:57;10.85;;;7.53;;
44376;SDS011;30093;0.000;0.000;2022-08-18T11:42:49;8.75;;;7.20;;
44376;SDS011;30093;0.000;0.000;2022-08-18T11:46:45;13.23;;;7.45;;
44376;SDS011;30093;0.000;0.000;2022-08-18T11:50:33;9.70;;;6.93;;
44376;SDS011;30093;0.000;0.000;2022-08-18T11:54:38;11.30;;;7.22;;
44376;SDS011;30093;0.000;0.000;2022-08-18T11:58:48;12.73;;;6.80;;
44376;SDS011;30093;0.000;0.000;2022-08-18T12:02:40;10.07;;;7.03;;
44376;SDS011;30093;0.000;0.000;2022-08-18T12:06:29;10.20;;;7.40;;
44376;SDS011;30093;0.000;0.000;2022-08-18T12:10:26;10.82;;;7.72;;
44376;SDS011;30093;0.000;0.000;2022-08-18T12:14:17;13.27;;;7.20;;
44376;SDS011;30093;0.000;0.000;2022-08-18T12:18:07;15.60;;;7.47;;
44376;SDS011;30093;0.000;0.000;2022-08-18T12:21:57;13.35;;;7.10;;
44376;SDS011;30093;0.000;0.000;2022-08-18T12:25:48;12.05;;;6.90;;
44376;SDS011;30093;0.000;0.000;2022-08-18T12:29:36;10.80;;;6.22;;
44376;SDS011;30093;0.000;0.000;2022-08-18T12:33:24;12.43;;;7.13;;
44376;SDS011;30093;0.000;0.000;2022-08-18T12:37:17;8.98;;;5.95;;
44376;SDS011;30093;0.000;0.000;2022-08-18T12:41:08;10.77;;;7.07;;
44376;SDS011;30093;0.000;0.000;2022-08-18T12:44:58;7.57;;;6.45;;
44376;SDS011;30093;0.000;0.000;2022-08-18T12:48:46;10.82;;;6.10;;
44376;SDS011;30093;0.000;0.000;2022-08-18T12:52:35;8.93;;;6.03;;
44376;SDS011;30093;0.000;0.000;2022-08-18T12:56:25;7.60;;;5.63;;
44376;SDS011;30093;0.000;0.000;2022-08-18T13:00:19;8.68;;;5.68;;
44376;SDS011;30093;0.000;0.000;2022-08-18T13:04:07;8.02;;;5.72;;
44376;SDS011;30093;0.000;0.000;2022-08-18T13:07:57;11.75;;;6.88;;
44376;SDS011;30093;0.000;0.000;2022-08-18T13:11:48;11.63;;;6.15;;
44376;SDS011;30093;0.000;0.000;2022-08-18T13:15:37;8.63;;;5.25;;
44376;SDS011;30093;0.000;0.000;2022-08-18T13:19:26;12.35;;;6.68;;
44376;SDS011;30093;0.000;0.000;2022-08-18T13:23:14;9.43;;;6.22;;
44376;SDS011;30093;0.000;0.000;2022-08-18T13:27:03;13.02;;;6.30;;
44376;SDS011;30093;0.000;0.000;2022-08-18T13:30:52;10.18;;;6.85;;
44376;SDS011;30093;0.000;0.000;2022-08-18T13:34:41;10.95;;;5.53;;
44376;SDS011;30093;0.000;0.000;2022-08-18T13:38:30;9.60;;;5.95;;
44376;SDS011;30093;0.000;0.000;2022-08-18T13:42:19;8.82;;;5.93;;
44376;SDS011;30093;0.000;0.000;2022-08-18T13:46:08;9.50;;;5.63;;
44376;SDS011;30093;0.000;0.000;2022-08-18T13:49:58;8.65;;;6.47;;
44376;SDS011;30093;0.000;0.000;2022-08-18T13:53:47;8.55;;;5.40;;
44376;SDS011;30093;0.000;0.000;2022-08-18T13:57:36;8.68;;;6.32;;
44376;SDS011;30093;0.000;0.000;2022-08-18T14:01:25;11.80;;;6.03;;
44376;SDS011;30093;0.000;0.000;2022-08-18T14:05:14;13.40;;;6.38;;
44376;SDS011;30093;0.000;0.000;2022-08-18T14:09:02;12.02;;;6.03;;
44376;SDS011;30093;0.000;0.000;2022-08-18T14:16:42;8.65;;;6.38;;
44376;SDS011;30093;0.000;0.000;2022-08-18T14:20:30;11.18;;;5.60;;
44376;SDS011;30093;0.000;0.000;2022-08-18T14:24:38;12.27;;;5.97;;
44376;SDS011;30093;0.000;0.000;2022-08-18T14:28:46;7.82;;;6.30;;
44376;SDS011;30093;0.000;0.000;2022-08-18T14:32:35;8.27;;;5.82;;
44376;SDS011;30093;0.000;0.000;2022-08-18T14:36:24;11.02;;;6.38;;
44376;SDS011;30093;0.000;0.000;2022-08-18T14:40:12;10.68;;;6.10;;
44376;SDS011;30093;0.000;0.000;2022-08-18T14:44:01;10.30;;;5.97;;
44376;SDS011;30093;0.000;0.000;2022-08-18T14:47:50;9.77;;;7.20;;
44376;SDS011;30093;0.000;0.000;2022-08-18T14:51:40;10.80;;;6.72;;
44376;SDS011;30093;0.000;0.000;2022-08-18T14:55:30;12.10;;;6.40;;
44376;SDS011;30093;0.000;0.000;2022-08-18T14:59:18;7.78;;;6.50;;
44376;SDS011;30093;0.000;0.000;2022-08-18T15:03:08;7.78;;;5.78;;
44376;SDS011;30093;0.000;0.000;2022-08-18T15:06:56;12.05;;;6.20;;
44376;SDS011;30093;0.000;0.000;2022-08-18T15:10:46;11.73;;;6.35;;
44376;SDS011;30093;0.000;0.000;2022-08-18T15:14:35;9.27;;;6.15;;
44376;SDS011;30093;0.000;0.000;2022-08-18T15:18:25;8.95;;;6.45;;
44376;SDS011;30093;0.000;0.000;2022-08-18T15:22:13;11.40;;;6.07;;
44376;SDS011;30093;0.000;0.000;2022-08-18T15:26:23;14.40;;;7.13;;
44376;SDS011;30093;0.000;0.000;2022-08-18T15:30:14;14.77;;;6.68;;
44376;SDS011;30093;0.000;0.000;2022-08-18T15:34:04;17.13;;;6.88;;
44376;SDS011;30093;0.000;0.000;2022-08-18T15:37:52;11.48;;;6.20;;
44376;SDS011;30093;0.000;0.000;2022-08-18T15:41:44;10.68;;;5.53;;
44376;SDS011;30093;0.000;0.000;2022-08-18T15:45:35;9.70;;;6.47;;
44376;SDS011;30093;0.000;0.000;2022-08-18T15:49:26;13.35;;;6.38;;
44376;SDS011;30093;0.000;0.000;2022-08-18T15:53:16;11.68;;;5.95;;
44376;SDS011;30093;0.000;0.000;2022-08-18T15:57:05;12.40;;;6.55;;
44376;SDS011;30093;0.000;0.000;2022-08-18T16:00:55;10.25;;;5.78;;
44376;SDS011;30093;0.000;0.000;2022-08-18T16:04:44;9.25;;;7.00;;
44376;SDS011;30093;0.000;0.000;2022-08-18T16:08:33;7.83;;;6.90;;
44376;SDS011;30093;0.000;0.000;2022-08-18T16:12:21;12.75;;;6.32;;
44376;SDS011;30093;0.000;0.000;2022-08-18T16:16:14;8.32;;;6.78;;
44376;SDS011;30093;0.000;0.000;2022-08-18T16:20:07;9.45;;;5.97;;
44376;SDS011;30093;0.000;0.000;2022-08-18T16:23:58;13.07;;;6.22;;
44376;SDS011;30093;0.000;0.000;2022-08-18T16:27:47;11.68;;;5.97;;
44376;SDS011;30093;0.000;0.000;2022-08-18T16:31:36;12.18;;;6.30;;
44376;SDS011;30093;0.000;0.000;2022-08-18T16:35:25;11.32;;;7.05;;
44376;SDS011;30093;0.000;0.000;2022-08-18T16:39:13;15.50;;;7.15;;
44376;SDS011;30093;0.000;0.000;2022-08-18T16:43:02;12.35;;;7.28;;
44376;SDS011;30093;0.000;0.000;2022-08-18T16:51:13;12.07;;;7.13;;
44376;SDS011;30093;0.000;0.000;2022-08-18T16:55:03;15.35;;;7.47;;
44376;SDS011;30093;0.000;0.000;2022-08-18T16:58:53;13.70;;;7.03;;
44376;SDS011;30093;0.000;0.000;2022-08-18T17:03:04;13.52;;;7.97;;
44376;SDS011;30093;0.000;0.000;2022-08-18T17:07:14;12.52;;;7.05;;
44376;SDS011;30093;0.000;0.000;2022-08-18T17:11:03;12.90;;;7.40;;
44376;SDS011;30093;0.000;0.000;2022-08-18T17:14:55;15.05;;;7.13;;
44376;SDS011;30093;0.000;0.000;2022-08-18T17:18:44;13.70;;;7.63;;
44376;SDS011;30093;0.000;0.000;2022-08-18T17:22:34;13.65;;;7.38;;
44376;SDS011;30093;0.000;0.000;2022-08-18T17:26:28;15.10;;;7.87;;
44376;SDS011;30093;0.000;0.000;2022-08-18T17:30:31;14.13;;;8.07;;
44376;SDS011;30093;0.000;0.000;2022-08-18T17:34:26;14.75;;;7.55;;
44376;SDS011;30093;0.000;0.000;2022-08-18T17:42:15;10.25;;;7.20;;
44376;SDS011;30093;0.000;0.000;2022-08-18T17:46:16;8.70;;;6.88;;
44376;SDS011;30093;0.000;0.000;2022-08-18T17:50:33;15.95;;;7.30;;
44376;SDS011;30093;0.000;0.000;2022-08-18T17:54:46;12.70;;;7.78;;
44376;SDS011;30093;0.000;0.000;2022-08-18T17:58:40;11.10;;;7.78;;
44376;SDS011;30093;0.000;0.000;2022-08-18T18:02:34;12.60;;;7.13;;
44376;SDS011;30093;0.000;0.000;2022-08-18T18:06:24;14.30;;;7.30;;
44376;SDS011;30093;0.000;0.000;2022-08-18T18:18:23;8.45;;;7.40;;
44376;SDS011;30093;0.000;0.000;2022-08-18T18:22:27;10.88;;;7.45;;
44376;SDS011;30093;0.000;0.000;2022-08-18T18:26:22;8.75;;;7.20;;
44376;SDS011;30093;0.000;0.000;2022-08-18T18:30:23;12.43;;;7.28;;
44376;SDS011;30093;0.000;0.000;2022-08-18T18:34:23;16.08;;;8.80;;
44376;SDS011;30093;0.000;0.000;2022-08-18T18:42:27;158.65;;;36.10;;
44376;SDS011;30093;0.000;0.000;2022-08-18T18:46:22;14.75;;;7.97;;
44376;SDS011;30093;0.000;0.000;2022-08-18T18:50:23;12.90;;;7.93;;
44376;SDS011;30093;0.000;0.000;2022-08-18T19:06:32;8.68;;;7.18;;
44376;SDS011;30093;0.000;0.000;2022-08-18T19:10:36;10.98;;;7.70;;
44376;SDS011;30093;0.000;0.000;2022-08-18T19:14:52;10.38;;;7.43;;
44376;SDS011;30093;0.000;0.000;2022-08-18T19:18:46;9.15;;;7.53;;
44376;SDS011;30093;0.000;0.000;2022-08-18T19:26:50;11.00;;;7.32;;
44376;SDS011;30093;0.000;0.000;2022-08-18T19:30:43;13.85;;;7.35;;
44376;SDS011;30093;0.000;0.000;2022-08-18T19:34:38;9.90;;;7.30;;
44376;SDS011;30093;0.000;0.000;2022-08-18T19:38:47;14.38;;;8.45;;
44376;SDS011;30093;0.000;0.000;2022-08-18T19:46:51;10.68;;;7.57;;
44376;SDS011;30093;0.000;0.000;2022-08-18T19:50:42;14.00;;;7.65;;
44376;SDS011;30093;0.000;0.000;2022-08-18T19:59:07;12.38;;;8.02;;
44376;SDS011;30093;0.000;0.000;2022-08-18T20:24:03;10.63;;;8.23;;
44376;SDS011;30093;0.000;0.000;2022-08-18T20:35:39;13.30;;;9.10;;
44376;SDS011;30093;0.000;0.000;2022-08-18T20:39:31;14.07;;;9.70;;
44376;SDS011;30093;0.000;0.000;2022-08-18T20:43:33;18.10;;;10.20;;
44376;SDS011;30093;0.000;0.000;2022-08-18T20:47:40;11.40;;;9.25;;
44376;SDS011;30093;0.000;0.000;2022-08-18T20:52:09;13.77;;;9.23;;
44376;SDS011;30093;0.000;0.000;2022-08-18T20:56:07;12.00;;;9.48;;
44376;SDS011;30093;0.000;0.000;2022-08-18T21:00:11;18.38;;;11.10;;
44376;SDS011;30093;0.000;0.000;2022-08-18T21:04:05;16.13;;;10.07;;
44376;SDS011;30093;0.000;0.000;2022-08-18T21:07:59;16.47;;;10.20;;
44376;SDS011;30093;0.000;0.000;2022-08-18T21:11:50;22.45;;;11.43;;
44376;SDS011;30093;0.000;0.000;2022-08-18T21:19:29;15.73;;;10.45;;
44376;SDS011;30093;0.000;0.000;2022-08-18T21:23:28;18.15;;;10.57;;
44376;SDS011;30093;0.000;0.000;2022-08-18T21:27:24;18.48;;;10.27;;
44376;SDS011;30093;0.000;0.000;2022-08-18T21:31:23;14.55;;;9.52;;
44376;SDS011;30093;0.000;0.000;2022-08-18T21:35:21;21.65;;;10.50;;
44376;SDS011;30093;0.000;0.000;2022-08-18T21:43:02;21.20;;;10.25;;
44376;SDS011;30093;0.000;0.000;2022-08-18T21:51:20;16.50;;;10.05;;
44376;SDS011;30093;0.000;0.000;2022-08-18T21:55:19;17.23;;;10.35;;
44376;SDS011;30093;0.000;0.000;2022-08-18T21:59:10;18.63;;;10.45;;
44376;SDS011;30093;0.000;0.000;2022-08-18T22:03:34;15.30;;;10.00;;
44376;SDS011;30093;0.000;0.000;2022-08-18T22:07:16;18.20;;;10.07;;
44376;SDS011;30093;0.000;0.000;2022-08-18T22:15:21;13.95;;;10.15;;
44376;SDS011;30093;0.000;0.000;2022-08-18T22:27:20;12.25;;;9.00;;
44376;SDS011;30093;0.000;0.000;2022-08-18T22:31:12;14.38;;;9.68;;
44376;SDS011;30093;0.000;0.000;2022-08-18T22:35:03;14.68;;;9.63;;
44376;SDS011;30093;0.000;0.000;2022-08-18T22:38:55;16.80;;;10.48;;
44376;SDS011;30093;0.000;0.000;2022-08-18T22:42:43;13.13;;;8.63;;
44376;SDS011;30093;0.000;0.000;2022-08-18T22:46:32;14.27;;;8.77;;
44376;SDS011;30093;0.000;0.000;2022-08-18T22:50:22;12.85;;;9.10;;
44376;SDS011;30093;0.000;0.000;2022-08-18T22:54:10;11.13;;;8.35;;
44376;SDS011;30093;0.000;0.000;2022-08-18T22:58:00;11.18;;;8.38;;
44376;SDS011;30093;0.000;0.000;2022-08-18T23:01:49;14.38;;;8.60;;
44376;SDS011;30093;0.000;0.000;2022-08-18T23:05:38;10.38;;;8.35;;
44376;SDS011;30093;0.000;0.000;2022-08-18T23:09:29;12.03;;;8.30;;
44376;SDS011;30093;0.000;0.000;2022-08-18T23:13:19;12.38;;;8.98;;
44376;SDS011;30093;0.000;0.000;2022-08-18T23:17:08;11.77;;;9.02;;
44376;SDS011;30093;0.000;0.000;2022-08-18T23:20:57;16.83;;;8.63;;
44376;SDS011;30093;0.000;0.000;2022-08-18T23:24:46;10.20;;;7.68;;
44376;SDS011;30093;0.000;0.000;2022-08-18T23:28:35;10.38;;;8.00;;
44376;SDS011;30093;0.000;0.000;2022-08-18T23:32:23;15.02;;;8.77;;
44376;SDS011;30093;0.000;0.000;2022-08-18T23:36:12;10.27;;;8.65;;
44376;SDS011;30093;0.000;0.000;2022-08-18T23:40:04;14.68;;;9.27;;
44376;SDS011;30093;0.000;0.000;2022-08-18T23:43:52;16.83;;;10.00;;
44376;SDS011;30093;0.000;0.000;2022-08-18T23:47:41;11.57;;;10.38;;
44376;SDS011;30093;0.000;0.000;2022-08-18T23:51:31;14.88;;;9.50;;
44376;SDS011;30093;0.000;0.000;2022-08-18T23:55:22;14.18;;;10.35;;
44376;SDS011;30093;0.000;0.000;2022-08-18T23:59:11;16.30;;;10.02;;
